Minneapolis, Minnesota
Current Conditions -  °F | °C
As of 2:53 PM on Tuesday 21 Oct 2014 (Local Time) from KMSP Reporting Station
Clear Clear  
Wind Chill: 13°   Ceiling: Unl
Heat Index: 13°   Visibility: 10mi
Dew Point:   Wind: 9mph
Humidity: 55%   Direction: 110°ESE
Pressure: 30.16"   Gusts: NA
Location:  44.98°N, 93.26°W
Report Text: KMSP 211953Z 11008KT 10SM CLR 13/04 A3016 RMK AO2 SLP217 T01330044
Loading
Personal Weather Stations






























Interactive Weather Map New forecast layout! Learn more

10-Day Weather Forecast

Advertisements
Track Severe Weather on mobile